sensor_id;sensor_type;location;lat;lon;timestamp;P1;durP1;ratioP1;P2;durP2;ratioP2
33792;SDS011;20105;48.764;9.178;2022-07-09T00:01:22;3.10;;;2.70;;
33792;SDS011;20105;48.764;9.178;2022-07-09T00:03:48;3.00;;;2.27;;
33792;SDS011;20105;48.764;9.178;2022-07-09T00:06:20;3.27;;;2.00;;
33792;SDS011;20105;48.764;9.178;2022-07-09T00:08:46;5.50;;;3.00;;
33792;SDS011;20105;48.764;9.178;2022-07-09T00:11:12;2.43;;;2.23;;
33792;SDS011;20105;48.764;9.178;2022-07-09T00:13:38;1.93;;;1.83;;
33792;SDS011;20105;48.764;9.178;2022-07-09T00:16:07;3.13;;;2.40;;
33792;SDS011;20105;48.764;9.178;2022-07-09T00:18:33;3.83;;;2.53;;
33792;SDS011;20105;48.764;9.178;2022-07-09T00:20:59;4.70;;;2.40;;
33792;SDS011;20105;48.764;9.178;2022-07-09T00:23:25;4.93;;;2.37;;
33792;SDS011;20105;48.764;9.178;2022-07-09T00:25:56;2.27;;;2.07;;
33792;SDS011;20105;48.764;9.178;2022-07-09T00:28:23;4.10;;;2.13;;
33792;SDS011;20105;48.764;9.178;2022-07-09T00:30:51;2.15;;;1.60;;
33792;SDS011;20105;48.764;9.178;2022-07-09T00:33:17;6.93;;;2.27;;
33792;SDS011;20105;48.764;9.178;2022-07-09T00:35:46;4.07;;;2.40;;
33792;SDS011;20105;48.764;9.178;2022-07-09T00:38:14;3.27;;;1.70;;
33792;SDS011;20105;48.764;9.178;2022-07-09T00:40:40;4.00;;;2.30;;
33792;SDS011;20105;48.764;9.178;2022-07-09T00:43:21;2.40;;;1.97;;
33792;SDS011;20105;48.764;9.178;2022-07-09T00:45:48;4.70;;;2.33;;
33792;SDS011;20105;48.764;9.178;2022-07-09T00:48:16;5.50;;;2.77;;
33792;SDS011;20105;48.764;9.178;2022-07-09T00:50:45;2.60;;;2.27;;
33792;SDS011;20105;48.764;9.178;2022-07-09T00:53:15;4.70;;;2.50;;
33792;SDS011;20105;48.764;9.178;2022-07-09T00:55:43;2.75;;;2.45;;
33792;SDS011;20105;48.764;9.178;2022-07-09T00:58:11;5.03;;;2.80;;
33792;SDS011;20105;48.764;9.178;2022-07-09T01:00:38;2.47;;;2.17;;
33792;SDS011;20105;48.764;9.178;2022-07-09T01:03:06;3.78;;;2.85;;
33792;SDS011;20105;48.764;9.178;2022-07-09T01:05:34;4.22;;;2.47;;
33792;SDS011;20105;48.764;9.178;2022-07-09T01:08:05;2.10;;;1.90;;
33792;SDS011;20105;48.764;9.178;2022-07-09T01:10:38;3.00;;;2.27;;
33792;SDS011;20105;48.764;9.178;2022-07-09T01:13:04;4.53;;;2.33;;
33792;SDS011;20105;48.764;9.178;2022-07-09T01:15:31;2.22;;;1.95;;
33792;SDS011;20105;48.764;9.178;2022-07-09T01:17:57;7.03;;;2.80;;
33792;SDS011;20105;48.764;9.178;2022-07-09T01:20:29;3.13;;;2.22;;
33792;SDS011;20105;48.764;9.178;2022-07-09T01:22:56;3.90;;;2.28;;
33792;SDS011;20105;48.764;9.178;2022-07-09T01:25:28;6.13;;;3.03;;
33792;SDS011;20105;48.764;9.178;2022-07-09T01:28:00;2.53;;;2.33;;
33792;SDS011;20105;48.764;9.178;2022-07-09T01:30:28;7.97;;;3.00;;
33792;SDS011;20105;48.764;9.178;2022-07-09T01:32:54;2.90;;;2.07;;
33792;SDS011;20105;48.764;9.178;2022-07-09T01:35:20;2.73;;;1.90;;
33792;SDS011;20105;48.764;9.178;2022-07-09T01:37:49;2.40;;;2.20;;
33792;SDS011;20105;48.764;9.178;2022-07-09T01:40:15;2.45;;;2.25;;
33792;SDS011;20105;48.764;9.178;2022-07-09T01:42:41;5.43;;;2.53;;
33792;SDS011;20105;48.764;9.178;2022-07-09T01:45:07;2.90;;;2.20;;
33792;SDS011;20105;48.764;9.178;2022-07-09T01:47:34;4.85;;;2.63;;
33792;SDS011;20105;48.764;9.178;2022-07-09T01:50:02;3.80;;;2.20;;
33792;SDS011;20105;48.764;9.178;2022-07-09T01:52:29;6.90;;;2.53;;
33792;SDS011;20105;48.764;9.178;2022-07-09T01:54:55;2.97;;;2.58;;
33792;SDS011;20105;48.764;9.178;2022-07-09T01:57:23;3.58;;;2.10;;
33792;SDS011;20105;48.764;9.178;2022-07-09T01:59:50;5.38;;;1.77;;
33792;SDS011;20105;48.764;9.178;2022-07-09T02:02:20;2.78;;;1.98;;
33792;SDS011;20105;48.764;9.178;2022-07-09T02:04:46;2.55;;;2.13;;
33792;SDS011;20105;48.764;9.178;2022-07-09T02:07:13;3.58;;;2.20;;
33792;SDS011;20105;48.764;9.178;2022-07-09T02:09:39;3.95;;;2.67;;
33792;SDS011;20105;48.764;9.178;2022-07-09T02:12:08;3.17;;;2.10;;
33792;SDS011;20105;48.764;9.178;2022-07-09T02:14:34;3.70;;;2.33;;
33792;SDS011;20105;48.764;9.178;2022-07-09T02:17:00;6.33;;;2.00;;
33792;SDS011;20105;48.764;9.178;2022-07-09T02:19:26;3.70;;;2.40;;
33792;SDS011;20105;48.764;9.178;2022-07-09T02:21:54;4.00;;;3.10;;
33792;SDS011;20105;48.764;9.178;2022-07-09T02:24:20;2.63;;;2.35;;
33792;SDS011;20105;48.764;9.178;2022-07-09T02:26:54;2.70;;;1.95;;
33792;SDS011;20105;48.764;9.178;2022-07-09T02:29:20;3.40;;;2.33;;
33792;SDS011;20105;48.764;9.178;2022-07-09T02:31:46;2.53;;;2.33;;
33792;SDS011;20105;48.764;9.178;2022-07-09T02:34:12;4.57;;;2.87;;
33792;SDS011;20105;48.764;9.178;2022-07-09T02:36:40;4.25;;;2.35;;
33792;SDS011;20105;48.764;9.178;2022-07-09T02:39:08;3.35;;;2.45;;
33792;SDS011;20105;48.764;9.178;2022-07-09T02:41:34;4.03;;;2.00;;
33792;SDS011;20105;48.764;9.178;2022-07-09T02:44:00;6.00;;;2.80;;
33792;SDS011;20105;48.764;9.178;2022-07-09T02:46:34;2.30;;;2.10;;
33792;SDS011;20105;48.764;9.178;2022-07-09T02:49:00;3.58;;;2.15;;
33792;SDS011;20105;48.764;9.178;2022-07-09T02:51:27;5.50;;;2.37;;
33792;SDS011;20105;48.764;9.178;2022-07-09T02:53:55;7.88;;;2.95;;
33792;SDS011;20105;48.764;9.178;2022-07-09T02:56:21;3.85;;;2.80;;
33792;SDS011;20105;48.764;9.178;2022-07-09T02:58:46;6.30;;;3.23;;
33792;SDS011;20105;48.764;9.178;2022-07-09T03:01:12;5.23;;;2.33;;
33792;SDS011;20105;48.764;9.178;2022-07-09T03:03:40;4.95;;;2.17;;
33792;SDS011;20105;48.764;9.178;2022-07-09T03:06:09;3.30;;;3.00;;
33792;SDS011;20105;48.764;9.178;2022-07-09T03:08:37;3.70;;;2.40;;
33792;SDS011;20105;48.764;9.178;2022-07-09T03:11:06;4.85;;;2.65;;
33792;SDS011;20105;48.764;9.178;2022-07-09T03:13:32;9.07;;;3.40;;
33792;SDS011;20105;48.764;9.178;2022-07-09T03:15:58;5.18;;;2.90;;
33792;SDS011;20105;48.764;9.178;2022-07-09T03:18:24;4.13;;;2.63;;
33792;SDS011;20105;48.764;9.178;2022-07-09T03:20:55;6.50;;;2.55;;
33792;SDS011;20105;48.764;9.178;2022-07-09T03:23:21;3.08;;;2.58;;
33792;SDS011;20105;48.764;9.178;2022-07-09T03:25:47;2.30;;;2.20;;
33792;SDS011;20105;48.764;9.178;2022-07-09T03:28:13;7.70;;;3.03;;
33792;SDS011;20105;48.764;9.178;2022-07-09T03:30:42;3.10;;;2.50;;
33792;SDS011;20105;48.764;9.178;2022-07-09T03:33:11;5.18;;;2.63;;
33792;SDS011;20105;48.764;9.178;2022-07-09T03:35:37;5.32;;;2.65;;
33792;SDS011;20105;48.764;9.178;2022-07-09T03:38:09;2.47;;;2.28;;
33792;SDS011;20105;48.764;9.178;2022-07-09T03:40:38;3.10;;;2.47;;
33792;SDS011;20105;48.764;9.178;2022-07-09T03:43:04;2.67;;;2.47;;
33792;SDS011;20105;48.764;9.178;2022-07-09T03:45:30;4.20;;;2.42;;
33792;SDS011;20105;48.764;9.178;2022-07-09T03:47:58;2.50;;;2.33;;
33792;SDS011;20105;48.764;9.178;2022-07-09T03:50:24;3.83;;;2.43;;
33792;SDS011;20105;48.764;9.178;2022-07-09T03:52:50;4.70;;;3.00;;
33792;SDS011;20105;48.764;9.178;2022-07-09T03:55:24;2.72;;;2.45;;
33792;SDS011;20105;48.764;9.178;2022-07-09T03:57:52;6.00;;;2.90;;
33792;SDS011;20105;48.764;9.178;2022-07-09T04:00:18;3.75;;;2.65;;
33792;SDS011;20105;48.764;9.178;2022-07-09T04:02:44;4.83;;;2.23;;
33792;SDS011;20105;48.764;9.178;2022-07-09T04:05:10;3.78;;;2.47;;
33792;SDS011;20105;48.764;9.178;2022-07-09T04:07:36;2.50;;;2.30;;
33792;SDS011;20105;48.764;9.178;2022-07-09T04:10:02;4.75;;;3.13;;
33792;SDS011;20105;48.764;9.178;2022-07-09T04:12:29;3.15;;;2.85;;
33792;SDS011;20105;48.764;9.178;2022-07-09T04:14:54;4.47;;;2.97;;
33792;SDS011;20105;48.764;9.178;2022-07-09T04:17:23;2.85;;;2.65;;
33792;SDS011;20105;48.764;9.178;2022-07-09T04:19:49;3.00;;;2.63;;
33792;SDS011;20105;48.764;9.178;2022-07-09T04:22:15;4.10;;;2.77;;
33792;SDS011;20105;48.764;9.178;2022-07-09T04:24:44;3.67;;;2.97;;
33792;SDS011;20105;48.764;9.178;2022-07-09T04:27:13;2.22;;;1.98;;
33792;SDS011;20105;48.764;9.178;2022-07-09T04:29:42;3.00;;;2.72;;
33792;SDS011;20105;48.764;9.178;2022-07-09T04:32:08;3.60;;;2.70;;
33792;SDS011;20105;48.764;9.178;2022-07-09T04:34:38;6.97;;;3.13;;
33792;SDS011;20105;48.764;9.178;2022-07-09T04:37:04;6.10;;;3.03;;
33792;SDS011;20105;48.764;9.178;2022-07-09T04:39:30;3.35;;;2.50;;
33792;SDS011;20105;48.764;9.178;2022-07-09T04:41:59;3.40;;;3.08;;
33792;SDS011;20105;48.764;9.178;2022-07-09T04:44:24;4.07;;;2.73;;
33792;SDS011;20105;48.764;9.178;2022-07-09T04:46:50;5.47;;;3.00;;
33792;SDS011;20105;48.764;9.178;2022-07-09T04:49:16;3.93;;;3.03;;
33792;SDS011;20105;48.764;9.178;2022-07-09T04:51:42;2.63;;;2.43;;
33792;SDS011;20105;48.764;9.178;2022-07-09T04:54:11;7.28;;;2.42;;
33792;SDS011;20105;48.764;9.178;2022-07-09T04:56:36;6.37;;;3.00;;
33792;SDS011;20105;48.764;9.178;2022-07-09T04:59:02;4.93;;;3.30;;
33792;SDS011;20105;48.764;9.178;2022-07-09T05:01:30;4.23;;;2.70;;
33792;SDS011;20105;48.764;9.178;2022-07-09T05:03:58;3.40;;;2.60;;
33792;SDS011;20105;48.764;9.178;2022-07-09T05:06:24;3.25;;;2.25;;
33792;SDS011;20105;48.764;9.178;2022-07-09T05:08:50;7.32;;;2.50;;
33792;SDS011;20105;48.764;9.178;2022-07-09T05:11:16;2.90;;;2.70;;
33792;SDS011;20105;48.764;9.178;2022-07-09T05:13:44;3.15;;;2.85;;
33792;SDS011;20105;48.764;9.178;2022-07-09T05:16:16;3.28;;;2.33;;
33792;SDS011;20105;48.764;9.178;2022-07-09T05:18:44;3.10;;;2.60;;
33792;SDS011;20105;48.764;9.178;2022-07-09T05:21:10;2.65;;;2.45;;
33792;SDS011;20105;48.764;9.178;2022-07-09T05:23:46;2.83;;;2.63;;
33792;SDS011;20105;48.764;9.178;2022-07-09T05:26:12;5.40;;;2.40;;
33792;SDS011;20105;48.764;9.178;2022-07-09T05:28:38;5.63;;;3.40;;
33792;SDS011;20105;48.764;9.178;2022-07-09T05:31:06;5.30;;;2.60;;
33792;SDS011;20105;48.764;9.178;2022-07-09T05:33:32;3.00;;;2.70;;
33792;SDS011;20105;48.764;9.178;2022-07-09T05:36:00;3.28;;;2.22;;
33792;SDS011;20105;48.764;9.178;2022-07-09T05:38:31;3.97;;;2.67;;
33792;SDS011;20105;48.764;9.178;2022-07-09T05:40:57;4.87;;;2.53;;
33792;SDS011;20105;48.764;9.178;2022-07-09T05:43:23;3.43;;;3.13;;
33792;SDS011;20105;48.764;9.178;2022-07-09T05:45:52;2.80;;;2.50;;
33792;SDS011;20105;48.764;9.178;2022-07-09T05:48:17;6.03;;;3.23;;
33792;SDS011;20105;48.764;9.178;2022-07-09T05:50:49;3.03;;;2.40;;
33792;SDS011;20105;48.764;9.178;2022-07-09T05:53:19;3.00;;;2.30;;
33792;SDS011;20105;48.764;9.178;2022-07-09T05:55:46;7.60;;;3.30;;
33792;SDS011;20105;48.764;9.178;2022-07-09T05:58:12;4.27;;;2.33;;
33792;SDS011;20105;48.764;9.178;2022-07-09T06:00:49;5.30;;;3.00;;
33792;SDS011;20105;48.764;9.178;2022-07-09T06:03:15;6.47;;;2.83;;
33792;SDS011;20105;48.764;9.178;2022-07-09T06:05:44;3.30;;;2.43;;
33792;SDS011;20105;48.764;9.178;2022-07-09T06:08:10;4.00;;;2.33;;
33792;SDS011;20105;48.764;9.178;2022-07-09T06:10:40;2.50;;;2.20;;
33792;SDS011;20105;48.764;9.178;2022-07-09T06:13:06;4.80;;;2.27;;
33792;SDS011;20105;48.764;9.178;2022-07-09T06:15:34;6.20;;;2.90;;
33792;SDS011;20105;48.764;9.178;2022-07-09T06:18:00;6.87;;;2.60;;
33792;SDS011;20105;48.764;9.178;2022-07-09T06:20:26;3.03;;;2.53;;
33792;SDS011;20105;48.764;9.178;2022-07-09T06:23:01;2.73;;;2.53;;
33792;SDS011;20105;48.764;9.178;2022-07-09T06:25:30;3.50;;;2.13;;
33792;SDS011;20105;48.764;9.178;2022-07-09T06:27:56;4.03;;;2.63;;
33792;SDS011;20105;48.764;9.178;2022-07-09T06:30:22;2.97;;;2.30;;
33792;SDS011;20105;48.764;9.178;2022-07-09T06:32:54;2.93;;;1.90;;
33792;SDS011;20105;48.764;9.178;2022-07-09T06:35:20;1.70;;;1.60;;
33792;SDS011;20105;48.764;9.178;2022-07-09T06:37:45;3.13;;;2.33;;
33792;SDS011;20105;48.764;9.178;2022-07-09T06:40:11;3.10;;;2.30;;
33792;SDS011;20105;48.764;9.178;2022-07-09T06:42:38;4.97;;;2.67;;
33792;SDS011;20105;48.764;9.178;2022-07-09T06:45:07;6.33;;;2.37;;
33792;SDS011;20105;48.764;9.178;2022-07-09T06:47:34;3.70;;;2.57;;
33792;SDS011;20105;48.764;9.178;2022-07-09T06:50:02;2.07;;;1.90;;
33792;SDS011;20105;48.764;9.178;2022-07-09T06:52:28;3.00;;;2.17;;
33792;SDS011;20105;48.764;9.178;2022-07-09T06:54:54;4.93;;;2.30;;
33792;SDS011;20105;48.764;9.178;2022-07-09T06:57:20;3.37;;;2.00;;
33792;SDS011;20105;48.764;9.178;2022-07-09T06:59:49;4.67;;;1.93;;
33792;SDS011;20105;48.764;9.178;2022-07-09T07:02:17;3.13;;;1.67;;
33792;SDS011;20105;48.764;9.178;2022-07-09T07:04:46;1.90;;;1.80;;
33792;SDS011;20105;48.764;9.178;2022-07-09T07:07:19;5.93;;;2.43;;
33792;SDS011;20105;48.764;9.178;2022-07-09T07:09:47;2.40;;;2.10;;
33792;SDS011;20105;48.764;9.178;2022-07-09T07:12:14;6.17;;;2.50;;
33792;SDS011;20105;48.764;9.178;2022-07-09T07:14:40;3.63;;;2.10;;
33792;SDS011;20105;48.764;9.178;2022-07-09T07:17:06;4.17;;;2.67;;
33792;SDS011;20105;48.764;9.178;2022-07-09T07:19:32;5.50;;;2.37;;
33792;SDS011;20105;48.764;9.178;2022-07-09T07:21:58;4.80;;;2.67;;
33792;SDS011;20105;48.764;9.178;2022-07-09T07:24:26;3.17;;;1.90;;
33792;SDS011;20105;48.764;9.178;2022-07-09T07:26:52;2.80;;;1.80;;
33792;SDS011;20105;48.764;9.178;2022-07-09T07:29:19;6.20;;;2.13;;
33792;SDS011;20105;48.764;9.178;2022-07-09T07:31:45;4.43;;;2.37;;
33792;SDS011;20105;48.764;9.178;2022-07-09T07:34:14;3.07;;;1.93;;
33792;SDS011;20105;48.764;9.178;2022-07-09T07:36:47;5.30;;;2.40;;
33792;SDS011;20105;48.764;9.178;2022-07-09T07:39:16;7.90;;;2.30;;
33792;SDS011;20105;48.764;9.178;2022-07-09T07:41:42;5.43;;;1.93;;
33792;SDS011;20105;48.764;9.178;2022-07-09T07:44:09;2.40;;;1.90;;
33792;SDS011;20105;48.764;9.178;2022-07-09T07:46:37;3.30;;;2.33;;
33792;SDS011;20105;48.764;9.178;2022-07-09T07:49:06;2.40;;;1.90;;
33792;SDS011;20105;48.764;9.178;2022-07-09T07:51:35;3.40;;;2.10;;
33792;SDS011;20105;48.764;9.178;2022-07-09T07:54:04;3.50;;;2.90;;
33792;SDS011;20105;48.764;9.178;2022-07-09T07:56:40;6.43;;;2.17;;
33792;SDS011;20105;48.764;9.178;2022-07-09T07:59:06;6.93;;;2.53;;
33792;SDS011;20105;48.764;9.178;2022-07-09T08:01:35;2.03;;;1.87;;
33792;SDS011;20105;48.764;9.178;2022-07-09T08:04:04;3.70;;;2.27;;
33792;SDS011;20105;48.764;9.178;2022-07-09T08:06:32;2.10;;;1.90;;
33792;SDS011;20105;48.764;9.178;2022-07-09T08:09:00;4.97;;;1.87;;
33792;SDS011;20105;48.764;9.178;2022-07-09T08:11:33;2.43;;;2.10;;
33792;SDS011;20105;48.764;9.178;2022-07-09T08:14:01;3.97;;;1.73;;
33792;SDS011;20105;48.764;9.178;2022-07-09T08:16:32;2.63;;;1.90;;
33792;SDS011;20105;48.764;9.178;2022-07-09T08:19:01;3.07;;;1.83;;
33792;SDS011;20105;48.764;9.178;2022-07-09T08:21:29;1.40;;;1.30;;
33792;SDS011;20105;48.764;9.178;2022-07-09T08:23:57;2.67;;;1.50;;
33792;SDS011;20105;48.764;9.178;2022-07-09T08:26:30;3.53;;;1.20;;
33792;SDS011;20105;48.764;9.178;2022-07-09T08:28:59;4.57;;;1.90;;
33792;SDS011;20105;48.764;9.178;2022-07-09T08:31:27;2.77;;;1.60;;
33792;SDS011;20105;48.764;9.178;2022-07-09T08:33:55;3.23;;;1.30;;
33792;SDS011;20105;48.764;9.178;2022-07-09T08:36:26;2.63;;;1.80;;
33792;SDS011;20105;48.764;9.178;2022-07-09T08:38:54;1.50;;;1.40;;
33792;SDS011;20105;48.764;9.178;2022-07-09T08:41:19;2.87;;;2.30;;
33792;SDS011;20105;48.764;9.178;2022-07-09T08:43:49;1.60;;;1.50;;
33792;SDS011;20105;48.764;9.178;2022-07-09T08:46:19;1.80;;;1.70;;
33792;SDS011;20105;48.764;9.178;2022-07-09T08:48:49;5.20;;;1.87;;
33792;SDS011;20105;48.764;9.178;2022-07-09T08:51:14;4.50;;;2.07;;
33792;SDS011;20105;48.764;9.178;2022-07-09T08:53:43;4.90;;;2.20;;
33792;SDS011;20105;48.764;9.178;2022-07-09T08:56:10;1.60;;;1.50;;
33792;SDS011;20105;48.764;9.178;2022-07-09T08:58:37;2.30;;;1.93;;
33792;SDS011;20105;48.764;9.178;2022-07-09T09:01:02;2.40;;;1.77;;
33792;SDS011;20105;48.764;9.178;2022-07-09T09:03:29;2.57;;;1.50;;
33792;SDS011;20105;48.764;9.178;2022-07-09T09:08:27;3.20;;;1.30;;
33792;SDS011;20105;48.764;9.178;2022-07-09T09:10:53;5.83;;;1.60;;
33792;SDS011;20105;48.764;9.178;2022-07-09T09:13:19;1.70;;;1.50;;
33792;SDS011;20105;48.764;9.178;2022-07-09T09:15:44;4.10;;;1.50;;
33792;SDS011;20105;48.764;9.178;2022-07-09T09:18:10;2.33;;;1.40;;
33792;SDS011;20105;48.764;9.178;2022-07-09T09:20:36;1.53;;;1.27;;
33792;SDS011;20105;48.764;9.178;2022-07-09T09:23:03;2.83;;;1.73;;
33792;SDS011;20105;48.764;9.178;2022-07-09T09:25:34;1.20;;;1.03;;
33792;SDS011;20105;48.764;9.178;2022-07-09T09:28:00;1.20;;;1.10;;
33792;SDS011;20105;48.764;9.178;2022-07-09T09:30:27;2.00;;;1.00;;
33792;SDS011;20105;48.764;9.178;2022-07-09T09:35:23;2.17;;;1.20;;
33792;SDS011;20105;48.764;9.178;2022-07-09T09:37:50;2.73;;;1.60;;
33792;SDS011;20105;48.764;9.178;2022-07-09T09:40:16;1.53;;;1.23;;
33792;SDS011;20105;48.764;9.178;2022-07-09T09:42:42;2.43;;;1.33;;
33792;SDS011;20105;48.764;9.178;2022-07-09T09:45:10;1.73;;;1.53;;
33792;SDS011;20105;48.764;9.178;2022-07-09T09:47:43;8.33;;;1.50;;
33792;SDS011;20105;48.764;9.178;2022-07-09T09:50:15;2.30;;;1.60;;
33792;SDS011;20105;48.764;9.178;2022-07-09T09:52:43;4.30;;;2.00;;
33792;SDS011;20105;48.764;9.178;2022-07-09T09:55:14;2.27;;;1.50;;
33792;SDS011;20105;48.764;9.178;2022-07-09T09:57:41;2.60;;;1.50;;
33792;SDS011;20105;48.764;9.178;2022-07-09T10:00:07;1.30;;;1.13;;
33792;SDS011;20105;48.764;9.178;2022-07-09T10:02:34;2.73;;;1.40;;
33792;SDS011;20105;48.764;9.178;2022-07-09T10:05:00;1.47;;;1.37;;
33792;SDS011;20105;48.764;9.178;2022-07-09T10:07:26;2.73;;;1.27;;
33792;SDS011;20105;48.764;9.178;2022-07-09T10:09:53;4.73;;;2.00;;
33792;SDS011;20105;48.764;9.178;2022-07-09T10:12:29;2.00;;;1.40;;
33792;SDS011;20105;48.764;9.178;2022-07-09T10:14:58;3.60;;;1.40;;
33792;SDS011;20105;48.764;9.178;2022-07-09T10:17:24;3.00;;;2.00;;
33792;SDS011;20105;48.764;9.178;2022-07-09T10:22:18;3.23;;;1.40;;
33792;SDS011;20105;48.764;9.178;2022-07-09T10:24:44;1.80;;;1.57;;
33792;SDS011;20105;48.764;9.178;2022-07-09T10:27:12;2.10;;;1.40;;
33792;SDS011;20105;48.764;9.178;2022-07-09T10:29:57;1.47;;;1.37;;
33792;SDS011;20105;48.764;9.178;2022-07-09T10:32:33;2.20;;;1.50;;
33792;SDS011;20105;48.764;9.178;2022-07-09T10:35:01;3.07;;;2.43;;
33792;SDS011;20105;48.764;9.178;2022-07-09T10:37:30;2.10;;;1.53;;
33792;SDS011;20105;48.764;9.178;2022-07-09T10:40:04;1.23;;;1.20;;
33792;SDS011;20105;48.764;9.178;2022-07-09T10:42:34;0.90;;;0.80;;
33792;SDS011;20105;48.764;9.178;2022-07-09T10:44:59;1.30;;;1.20;;
33792;SDS011;20105;48.764;9.178;2022-07-09T10:47:30;4.10;;;1.17;;
33792;SDS011;20105;48.764;9.178;2022-07-09T10:50:06;1.33;;;1.20;;
33792;SDS011;20105;48.764;9.178;2022-07-09T10:52:33;2.00;;;1.20;;
33792;SDS011;20105;48.764;9.178;2022-07-09T10:54:59;1.20;;;1.10;;
33792;SDS011;20105;48.764;9.178;2022-07-09T10:57:25;2.10;;;1.03;;
33792;SDS011;20105;48.764;9.178;2022-07-09T10:59:51;3.00;;;1.00;;
33792;SDS011;20105;48.764;9.178;2022-07-09T11:02:20;1.50;;;1.10;;
33792;SDS011;20105;48.764;9.178;2022-07-09T11:04:53;1.43;;;1.30;;
33792;SDS011;20105;48.764;9.178;2022-07-09T11:07:22;4.50;;;1.17;;
33792;SDS011;20105;48.764;9.178;2022-07-09T11:09:49;0.93;;;0.90;;
33792;SDS011;20105;48.764;9.178;2022-07-09T11:12:16;0.93;;;0.93;;
33792;SDS011;20105;48.764;9.178;2022-07-09T11:14:46;1.60;;;1.30;;
33792;SDS011;20105;48.764;9.178;2022-07-09T11:17:16;1.30;;;1.20;;
33792;SDS011;20105;48.764;9.178;2022-07-09T11:19:43;0.80;;;0.80;;
33792;SDS011;20105;48.764;9.178;2022-07-09T11:22:09;1.10;;;1.00;;
33792;SDS011;20105;48.764;9.178;2022-07-09T11:24:35;1.20;;;1.10;;
33792;SDS011;20105;48.764;9.178;2022-07-09T11:27:02;1.23;;;1.10;;
33792;SDS011;20105;48.764;9.178;2022-07-09T11:29:28;3.73;;;1.23;;
33792;SDS011;20105;48.764;9.178;2022-07-09T11:31:54;2.00;;;1.20;;
33792;SDS011;20105;48.764;9.178;2022-07-09T11:34:20;2.37;;;1.30;;
33792;SDS011;20105;48.764;9.178;2022-07-09T11:36:46;3.13;;;1.20;;
33792;SDS011;20105;48.764;9.178;2022-07-09T11:39:22;1.90;;;1.07;;
33792;SDS011;20105;48.764;9.178;2022-07-09T11:41:50;2.20;;;1.13;;
33792;SDS011;20105;48.764;9.178;2022-07-09T11:44:19;1.50;;;1.20;;
33792;SDS011;20105;48.764;9.178;2022-07-09T11:47:02;3.70;;;1.50;;
33792;SDS011;20105;48.764;9.178;2022-07-09T11:52:02;3.77;;;1.50;;
33792;SDS011;20105;48.764;9.178;2022-07-09T11:54:29;0.83;;;0.83;;
33792;SDS011;20105;48.764;9.178;2022-07-09T11:56:55;3.00;;;1.17;;
33792;SDS011;20105;48.764;9.178;2022-07-09T11:59:30;1.30;;;0.90;;
33792;SDS011;20105;48.764;9.178;2022-07-09T12:01:56;3.73;;;1.37;;
33792;SDS011;20105;48.764;9.178;2022-07-09T12:04:23;1.20;;;1.10;;
33792;SDS011;20105;48.764;9.178;2022-07-09T12:06:51;1.10;;;1.00;;
33792;SDS011;20105;48.764;9.178;2022-07-09T12:09:30;1.50;;;1.00;;
33792;SDS011;20105;48.764;9.178;2022-07-09T12:11:57;1.83;;;1.20;;
33792;SDS011;20105;48.764;9.178;2022-07-09T12:14:23;3.03;;;1.60;;
33792;SDS011;20105;48.764;9.178;2022-07-09T12:16:49;4.47;;;1.80;;
33792;SDS011;20105;48.764;9.178;2022-07-09T12:19:15;1.40;;;1.30;;
33792;SDS011;20105;48.764;9.178;2022-07-09T12:21:40;0.90;;;0.90;;
33792;SDS011;20105;48.764;9.178;2022-07-09T12:24:06;1.40;;;1.23;;
33792;SDS011;20105;48.764;9.178;2022-07-09T12:26:31;3.00;;;1.43;;
33792;SDS011;20105;48.764;9.178;2022-07-09T12:28:58;2.63;;;1.63;;
33792;SDS011;20105;48.764;9.178;2022-07-09T12:31:23;6.00;;;1.00;;
33792;SDS011;20105;48.764;9.178;2022-07-09T12:33:49;1.43;;;1.33;;
33792;SDS011;20105;48.764;9.178;2022-07-09T12:36:15;1.63;;;1.10;;
33792;SDS011;20105;48.764;9.178;2022-07-09T12:38:41;1.03;;;1.03;;
33792;SDS011;20105;48.764;9.178;2022-07-09T12:41:07;1.33;;;0.97;;
33792;SDS011;20105;48.764;9.178;2022-07-09T12:43:33;1.30;;;1.20;;
33792;SDS011;20105;48.764;9.178;2022-07-09T12:45:58;1.17;;;1.17;;
33792;SDS011;20105;48.764;9.178;2022-07-09T12:48:24;1.33;;;1.10;;
33792;SDS011;20105;48.764;9.178;2022-07-09T12:50:50;2.13;;;1.40;;
33792;SDS011;20105;48.764;9.178;2022-07-09T12:53:15;2.17;;;1.27;;
33792;SDS011;20105;48.764;9.178;2022-07-09T12:55:41;2.50;;;1.20;;
33792;SDS011;20105;48.764;9.178;2022-07-09T12:58:06;3.73;;;1.20;;
33792;SDS011;20105;48.764;9.178;2022-07-09T13:00:32;2.03;;;1.13;;
33792;SDS011;20105;48.764;9.178;2022-07-09T13:02:58;2.57;;;1.00;;
33792;SDS011;20105;48.764;9.178;2022-07-09T13:05:23;1.23;;;0.93;;
33792;SDS011;20105;48.764;9.178;2022-07-09T13:07:49;2.30;;;1.30;;
33792;SDS011;20105;48.764;9.178;2022-07-09T13:10:14;2.20;;;1.07;;
33792;SDS011;20105;48.764;9.178;2022-07-09T13:12:40;1.50;;;1.40;;
33792;SDS011;20105;48.764;9.178;2022-07-09T13:15:06;1.20;;;1.10;;
33792;SDS011;20105;48.764;9.178;2022-07-09T13:17:31;2.27;;;1.60;;
33792;SDS011;20105;48.764;9.178;2022-07-09T13:19:57;1.43;;;0.83;;
33792;SDS011;20105;48.764;9.178;2022-07-09T13:22:23;1.80;;;1.07;;
33792;SDS011;20105;48.764;9.178;2022-07-09T13:24:48;1.67;;;1.20;;
33792;SDS011;20105;48.764;9.178;2022-07-09T13:27:14;1.93;;;1.10;;
33792;SDS011;20105;48.764;9.178;2022-07-09T13:29:43;0.87;;;0.87;;
33792;SDS011;20105;48.764;9.178;2022-07-09T13:32:09;3.80;;;1.20;;
33792;SDS011;20105;48.764;9.178;2022-07-09T13:34:35;0.87;;;0.87;;
33792;SDS011;20105;48.764;9.178;2022-07-09T13:37:01;2.17;;;0.90;;
33792;SDS011;20105;48.764;9.178;2022-07-09T13:39:27;1.33;;;1.10;;
33792;SDS011;20105;48.764;9.178;2022-07-09T13:41:52;1.87;;;0.90;;
33792;SDS011;20105;48.764;9.178;2022-07-09T13:44:18;2.10;;;1.27;;
33792;SDS011;20105;48.764;9.178;2022-07-09T13:46:43;1.73;;;1.17;;
33792;SDS011;20105;48.764;9.178;2022-07-09T13:49:09;2.87;;;1.17;;
33792;SDS011;20105;48.764;9.178;2022-07-09T13:51:34;2.80;;;2.53;;
33792;SDS011;20105;48.764;9.178;2022-07-09T13:54:00;1.43;;;1.27;;
33792;SDS011;20105;48.764;9.178;2022-07-09T13:56:26;1.73;;;1.60;;
33792;SDS011;20105;48.764;9.178;2022-07-09T13:58:51;4.83;;;1.00;;
33792;SDS011;20105;48.764;9.178;2022-07-09T14:01:17;1.33;;;0.90;;
33792;SDS011;20105;48.764;9.178;2022-07-09T14:03:44;1.83;;;1.10;;
33792;SDS011;20105;48.764;9.178;2022-07-09T14:06:10;4.20;;;1.20;;
33792;SDS011;20105;48.764;9.178;2022-07-09T14:08:36;1.60;;;1.30;;
33792;SDS011;20105;48.764;9.178;2022-07-09T14:11:03;1.03;;;0.87;;
33792;SDS011;20105;48.764;9.178;2022-07-09T14:13:29;1.20;;;1.07;;
33792;SDS011;20105;48.764;9.178;2022-07-09T14:15:55;1.37;;;1.20;;
33792;SDS011;20105;48.764;9.178;2022-07-09T14:18:22;1.07;;;0.97;;
33792;SDS011;20105;48.764;9.178;2022-07-09T14:20:48;1.07;;;1.07;;
33792;SDS011;20105;48.764;9.178;2022-07-09T14:23:14;1.13;;;1.10;;
33792;SDS011;20105;48.764;9.178;2022-07-09T14:25:40;1.33;;;1.23;;
33792;SDS011;20105;48.764;9.178;2022-07-09T14:28:06;1.57;;;1.40;;
33792;SDS011;20105;48.764;9.178;2022-07-09T14:30:31;1.20;;;1.10;;
33792;SDS011;20105;48.764;9.178;2022-07-09T14:32:57;2.07;;;1.67;;
33792;SDS011;20105;48.764;9.178;2022-07-09T14:35:24;1.27;;;1.00;;
33792;SDS011;20105;48.764;9.178;2022-07-09T14:37:54;1.50;;;1.40;;
33792;SDS011;20105;48.764;9.178;2022-07-09T14:40:19;1.70;;;1.50;;
33792;SDS011;20105;48.764;9.178;2022-07-09T14:42:45;1.50;;;1.40;;
33792;SDS011;20105;48.764;9.178;2022-07-09T14:45:10;1.67;;;1.27;;
33792;SDS011;20105;48.764;9.178;2022-07-09T14:47:36;1.63;;;1.30;;
33792;SDS011;20105;48.764;9.178;2022-07-09T14:50:02;3.83;;;1.30;;
33792;SDS011;20105;48.764;9.178;2022-07-09T14:52:28;3.90;;;1.30;;
33792;SDS011;20105;48.764;9.178;2022-07-09T14:54:54;1.67;;;1.20;;
33792;SDS011;20105;48.764;9.178;2022-07-09T14:57:19;2.63;;;1.03;;
33792;SDS011;20105;48.764;9.178;2022-07-09T14:59:45;1.50;;;1.30;;